Time;durP1;ratioP1;P1;durP2;ratioP2;P2;SDS_P1;SDS_P2;PMS_P1;PMS_P2;Temp;Humidity;BMP_temperature;BMP_pressure;BME280_temperature;BME280_humidity;BME280_pressure;Samples;Min_cycle;Max_cycle;Signal;HPM_P1;HPM_P2
2023/02/14 00:02:02;;;;;;;11.80;11.40;;;20.70;56.50;;;;;;5111852;28;20784;-57
2023/02/14 00:04:29;;;;;;;11.83;11.43;;;20.60;56.40;;;;;;5111879;28;20524;-59
2023/02/14 00:06:55;;;;;;;11.50;11.20;;;20.60;56.40;;;;;;5111756;28;20552;-55
2023/02/14 00:09:22;;;;;;;12.00;11.60;;;20.60;56.40;;;;;;5111616;28;20552;-57
2023/02/14 00:11:49;;;;;;;12.07;11.67;;;20.60;56.50;;;;;;5111383;28;20441;-56
2023/02/14 00:17:02;;;;;;;12.20;11.80;;;20.60;56.40;;;;;;5111634;28;20468;-59
2023/02/14 00:19:30;;;;;;;11.90;11.50;;;20.60;56.40;;;;;;5111438;28;20836;-59
2023/02/14 00:21:57;;;;;;;12.20;11.70;;;20.60;56.40;;;;;;5111618;28;20447;-59
2023/02/14 00:24:26;;;;;;;12.30;11.90;;;20.70;56.50;;;;;;5111255;28;20442;-59
2023/02/14 00:26:53;;;;;;;12.03;11.63;;;20.60;56.40;;;;;;5073367;28;1086376;-59
2023/02/14 00:29:23;;;;;;;11.77;11.47;;;20.60;56.40;;;;;;5112074;28;20294;-57
2023/02/14 00:31:51;;;;;;;11.93;11.63;;;20.60;56.40;;;;;;5112240;28;20452;-59
2023/02/14 00:34:18;;;;;;;12.17;11.77;;;20.60;56.40;;;;;;5112028;28;20855;-57
2023/02/14 00:36:45;;;;;;;11.30;11.00;;;20.60;56.40;;;;;;5111820;28;20454;-58
2023/02/14 00:39:13;;;;;;;11.60;11.30;;;20.60;56.40;;;;;;5111659;28;20442;-59
2023/02/14 00:41:41;;;;;;;12.40;12.00;;;20.60;56.40;;;;;;5111986;28;20455;-58
2023/02/14 00:44:09;;;;;;;11.87;11.47;;;20.60;56.30;;;;;;5111996;28;20442;-59
2023/02/14 00:46:38;;;;;;;11.30;10.90;;;20.60;56.30;;;;;;5111913;28;20877;-58
2023/02/14 00:49:05;;;;;;;11.83;11.43;;;20.60;56.30;;;;;;5111921;28;20437;-58
2023/02/14 00:51:32;;;;;;;12.10;11.70;;;20.60;56.30;;;;;;5111829;28;20442;-58
2023/02/14 00:53:59;;;;;;;11.47;11.17;;;20.50;56.20;;;;;;5111925;28;20939;-58
2023/02/14 00:56:26;;;;;;;11.70;11.30;;;20.50;56.20;;;;;;5112115;28;20484;-59
2023/02/14 00:58:53;;;;;;;12.43;12.03;;;20.50;56.20;;;;;;5112022;28;20442;-60
2023/02/14 01:01:20;;;;;;;12.00;11.70;;;20.50;56.40;;;;;;5116099;28;20896;-59
2023/02/14 01:03:48;;;;;;;12.20;11.80;;;20.50;56.20;;;;;;5116127;28;20442;-59
2023/02/14 01:06:15;;;;;;;12.20;11.90;;;20.50;56.20;;;;;;5115645;28;20469;-60
2023/02/14 01:08:42;;;;;;;11.67;11.37;;;20.50;56.20;;;;;;5116094;28;20504;-59
2023/02/14 01:11:11;;;;;;;11.93;11.53;;;20.50;56.20;;;;;;5115723;28;21018;-60
2023/02/14 01:13:38;;;;;;;11.90;11.60;;;20.50;56.30;;;;;;5115465;28;20442;-58
2023/02/14 01:16:07;;;;;;;12.90;12.40;;;20.50;56.40;;;;;;5115834;28;20491;-57
2023/02/14 01:18:34;;;;;;;12.20;11.80;;;20.50;56.40;;;;;;5115663;28;20855;-58
2023/02/14 01:21:12;;;;;;;11.87;11.47;;;20.50;56.30;;;;;;5115549;28;20451;-58
2023/02/14 01:23:39;;;;;;;11.87;11.57;;;20.50;56.30;;;;;;5115777;28;20451;-58
2023/02/14 01:26:07;;;;;;;12.40;12.00;;;20.50;56.40;;;;;;5115426;28;20556;-58
2023/02/14 01:28:34;;;;;;;11.47;11.17;;;20.50;56.40;;;;;;5115711;28;20460;-58
2023/02/14 01:31:10;;;;;;;12.20;11.83;;;20.50;56.40;;;;;;5115568;28;20750;-59
2023/02/14 01:33:38;;;;;;;11.53;11.23;;;20.50;56.40;;;;;;5115302;28;20445;-59
2023/02/14 01:36:05;;;;;;;11.87;11.57;;;20.50;56.40;;;;;;5115438;28;20993;-58
2023/02/14 01:38:33;;;;;;;12.13;11.80;;;20.50;56.40;;;;;;5115518;28;20445;-55
2023/02/14 01:41:00;;;;;;;12.13;11.73;;;20.50;56.40;;;;;;5114939;28;20452;-56
2023/02/14 01:43:27;;;;;;;12.30;11.90;;;20.40;56.30;;;;;;5115021;28;20448;-56
2023/02/14 01:45:54;;;;;;;12.87;12.40;;;20.50;56.40;;;;;;5115261;28;20461;-57
2023/02/14 01:48:22;;;;;;;11.73;11.40;;;20.40;56.40;;;;;;5115172;28;21010;-56
2023/02/14 01:50:52;;;;;;;11.70;11.40;;;20.40;56.30;;;;;;5115034;28;20441;-58
2023/02/14 01:53:23;;;;;;;12.00;11.70;;;20.40;56.30;;;;;;5114826;28;20441;-57
2023/02/14 01:55:59;;;;;;;11.93;11.63;;;20.40;56.30;;;;;;5115164;28;20485;-57
2023/02/14 01:58:29;;;;;;;11.90;11.57;;;20.50;56.40;;;;;;5115226;28;20449;-58
2023/02/14 02:00:58;;;;;;;12.03;11.63;;;20.50;56.40;;;;;;5114762;28;20525;-57
2023/02/14 02:03:29;;;;;;;12.40;12.00;;;20.50;56.40;;;;;;5114831;28;20441;-56
2023/02/14 02:06:04;;;;;;;11.80;11.50;;;20.50;56.40;;;;;;5114805;28;20510;-58
2023/02/14 02:08:34;;;;;;;11.33;11.03;;;20.50;56.40;;;;;;5114675;28;20451;-56
2023/02/14 02:11:02;;;;;;;11.40;11.00;;;20.40;56.30;;;;;;5114540;28;20802;-58
2023/02/14 02:13:29;;;;;;;12.70;12.10;;;20.40;56.30;;;;;;5114903;28;20471;-57
2023/02/14 02:16:12;;;;;;;11.87;11.47;;;20.40;56.30;;;;;;5114344;28;20489;-58
2023/02/14 02:18:56;;;;;;;11.80;11.40;;;20.40;56.20;;;;;;5114649;28;20445;-58
2023/02/14 02:21:57;;;;;;;12.20;11.80;;;20.40;56.20;;;;;;5114551;28;20441;-58
2023/02/14 02:24:40;;;;;;;12.87;12.37;;;20.40;56.20;;;;;;5044882;27;20958;-54
2023/02/14 02:27:54;;;;;;;11.67;11.37;;;20.40;56.30;;;;;;5094646;28;20472;-58
2023/02/14 02:31:02;;;;;;;12.37;11.87;;;20.40;56.20;;;;;;5074010;28;20788;-56
2023/02/14 02:34:02;;;;;;;11.97;11.60;;;20.40;56.20;;;;;;5095308;28;20904;-56
2023/02/14 02:37:02;;;;;;;11.63;11.23;;;20.40;56.20;;;;;;5112288;28;20485;-57
2023/02/14 02:39:46;;;;;;;11.93;11.53;;;20.30;56.10;;;;;;5116869;28;20448;-59
2023/02/14 02:42:24;;;;;;;11.97;11.67;;;20.40;56.20;;;;;;5114407;28;20437;-59
2023/02/14 02:45:01;;;;;;;12.17;11.77;;;20.30;56.10;;;;;;5114206;28;20440;-59
2023/02/14 02:47:34;;;;;;;12.40;12.00;;;20.30;56.10;;;;;;5114089;28;20540;-59
2023/02/14 02:53:13;;;;;;;11.73;11.43;;;20.30;56.10;;;;;;5114071;28;20438;-59
2023/02/14 02:58:34;;;;;;;11.33;11.03;;;20.30;56.10;;;;;;5114111;28;20416;-55
2023/02/14 03:01:06;;;;;;;12.40;11.87;;;20.30;56.00;;;;;;5113661;28;20442;-57
2023/02/14 03:06:20;;;;;;;12.80;12.30;;;20.30;56.00;;;;;;5113641;28;20444;-58
2023/02/14 03:08:48;;;;;;;12.33;11.93;;;20.30;56.00;;;;;;5113628;28;20447;-57
2023/02/14 03:11:15;;;;;;;11.57;11.17;;;20.30;56.00;;;;;;5113620;28;20541;-57
2023/02/14 03:13:59;;;;;;;11.87;11.50;;;20.30;56.00;;;;;;5113772;28;20441;-59
2023/02/14 03:16:35;;;;;;;11.67;11.37;;;20.30;56.00;;;;;;5113338;28;20485;-60
2023/02/14 03:22:25;;;;;;;11.83;11.53;;;20.30;55.90;;;;;;5112779;28;20456;-59
2023/02/14 03:24:57;;;;;;;12.03;11.70;;;20.30;55.90;;;;;;5113352;28;20433;-58
2023/02/14 03:27:28;;;;;;;12.03;11.63;;;20.30;55.90;;;;;;5113310;28;20468;-58
2023/02/14 03:30:02;;;;;;;11.87;11.57;;;20.30;55.90;;;;;;5113121;28;20445;-58
2023/02/14 03:32:37;;;;;;;12.07;11.57;;;20.30;55.80;;;;;;5112986;28;20437;-58
2023/02/14 03:35:12;;;;;;;12.03;11.63;;;20.30;55.80;;;;;;5113075;28;20441;-59
2023/02/14 03:37:44;;;;;;;11.10;10.80;;;20.30;55.80;;;;;;5113072;28;20463;-59
2023/02/14 03:40:16;;;;;;;10.80;10.50;;;20.30;55.80;;;;;;5112826;28;20802;-58
2023/02/14 03:42:47;;;;;;;10.90;10.60;;;20.30;55.80;;;;;;5113059;28;20452;-59
2023/02/14 03:45:19;;;;;;;10.97;10.67;;;20.20;55.70;;;;;;5112667;28;20437;-56
2023/02/14 03:47:48;;;;;;;10.63;10.33;;;20.20;55.70;;;;;;5112683;28;20466;-57
2023/02/14 03:50:17;;;;;;;11.00;10.70;;;20.30;55.80;;;;;;5111948;28;20496;-60
2023/02/14 03:52:46;;;;;;;10.73;10.43;;;20.30;55.80;;;;;;5112793;28;20528;-59
2023/02/14 03:55:19;;;;;;;11.23;10.83;;;20.30;55.80;;;;;;5112652;28;20536;-58
2023/02/14 03:57:53;;;;;;;10.70;10.40;;;20.30;55.80;;;;;;5112672;28;20468;-55
2023/02/14 04:00:20;;;;;;;11.70;11.30;;;20.20;55.70;;;;;;5112263;28;20448;-58
2023/02/14 04:02:51;;;;;;;10.70;10.40;;;20.20;55.70;;;;;;5112615;28;20441;-58
2023/02/14 04:05:22;;;;;;;10.00;9.70;;;20.30;55.80;;;;;;5112933;28;20448;-57
2023/02/14 04:07:52;;;;;;;11.00;10.60;;;20.20;55.70;;;;;;5112433;28;21012;-58
2023/02/14 04:10:21;;;;;;;11.23;10.83;;;20.30;55.80;;;;;;5112256;28;20441;-59
2023/02/14 04:12:48;;;;;;;10.20;9.90;;;20.30;55.80;;;;;;5112594;28;20538;-59
2023/02/14 04:15:16;;;;;;;11.10;10.70;;;20.20;55.70;;;;;;5112352;28;20445;-59
2023/02/14 04:20:27;;;;;;;10.57;10.17;;;20.20;55.70;;;;;;5112263;28;20498;-58
2023/02/14 04:22:54;;;;;;;10.07;9.77;;;20.30;55.80;;;;;;5112254;28;20570;-57
2023/02/14 04:25:23;;;;;;;9.70;9.40;;;20.20;55.60;;;;;;5112271;28;20441;-58
2023/02/14 04:27:50;;;;;;;10.77;10.47;;;20.30;55.70;;;;;;5111837;28;20479;-58
2023/02/14 04:30:19;;;;;;;10.70;10.40;;;20.20;55.60;;;;;;5111996;28;20968;-54
2023/02/14 04:32:46;;;;;;;11.07;10.67;;;20.20;55.60;;;;;;5112420;28;20452;-57
2023/02/14 04:35:13;;;;;;;10.47;10.17;;;20.20;55.60;;;;;;5110993;28;20965;-54
2023/02/14 04:37:40;;;;;;;11.30;11.00;;;20.20;55.60;;;;;;5111933;28;20453;-58
2023/02/14 04:40:08;;;;;;;10.93;10.53;;;20.20;55.60;;;;;;5112016;28;20443;-55
2023/02/14 04:42:36;;;;;;;10.20;9.90;;;20.20;55.60;;;;;;5111901;28;20443;-57
2023/02/14 04:45:03;;;;;;;10.30;10.00;;;20.20;55.50;;;;;;5112154;28;20524;-57
2023/02/14 04:47:30;;;;;;;10.80;10.47;;;20.20;55.50;;;;;;5111883;28;20540;-56
2023/02/14 04:49:57;;;;;;;10.10;9.80;;;20.20;55.50;;;;;;5111865;28;20534;-57
2023/02/14 04:52:24;;;;;;;10.00;9.70;;;20.20;55.40;;;;;;5112255;28;20442;-57
2023/02/14 04:54:51;;;;;;;10.43;10.13;;;20.20;55.40;;;;;;5111739;28;20437;-57
2023/02/14 04:57:18;;;;;;;10.77;10.37;;;20.20;55.40;;;;;;5111815;28;20481;-56
2023/02/14 04:59:46;;;;;;;10.20;9.90;;;20.20;55.40;;;;;;5111591;28;20452;-57
2023/02/14 05:02:13;;;;;;;10.17;9.80;;;20.20;55.40;;;;;;5111891;28;20449;-59
2023/02/14 05:04:39;;;;;;;9.50;9.30;;;20.20;55.50;;;;;;5111891;28;20448;-58
2023/02/14 05:07:06;;;;;;;10.50;10.20;;;20.20;55.50;;;;;;5111703;28;20552;-59
2023/02/14 05:09:33;;;;;;;10.63;10.33;;;20.20;55.50;;;;;;5111624;28;20440;-58
2023/02/14 05:12:00;;;;;;;10.60;10.23;;;20.20;55.50;;;;;;5111723;28;20476;-58
2023/02/14 05:14:27;;;;;;;10.70;10.40;;;20.20;55.50;;;;;;5111831;28;20847;-55
2023/02/14 05:16:55;;;;;;;10.87;10.47;;;20.10;55.40;;;;;;5111599;28;20854;-56
2023/02/14 05:19:22;;;;;;;10.40;10.00;;;20.10;55.40;;;;;;5111527;28;20467;-56
2023/02/14 05:21:48;;;;;;;10.63;10.23;;;20.10;55.40;;;;;;5111585;28;20445;-58
2023/02/14 05:24:15;;;;;;;10.20;9.70;;;20.20;55.60;;;;;;5111432;28;20555;-58
2023/02/14 05:26:42;;;;;;;10.97;10.57;;;20.10;55.60;;;;;;5111959;28;20477;-57
2023/02/14 05:29:09;;;;;;;10.43;10.13;;;20.10;55.70;;;;;;5111836;28;20891;-57
2023/02/14 05:31:36;;;;;;;11.80;11.40;;;20.10;55.70;;;;;;5111811;28;20537;-57
2023/02/14 05:34:04;;;;;;;10.70;10.37;;;20.10;55.80;;;;;;5111689;28;20455;-59
2023/02/14 05:36:31;;;;;;;10.83;10.43;;;20.10;55.90;;;;;;5111263;28;20499;-59
2023/02/14 05:38:58;;;;;;;10.53;10.23;;;20.10;55.90;;;;;;5111439;28;20441;-58
2023/02/14 05:41:24;;;;;;;10.83;10.50;;;20.10;55.90;;;;;;5111210;28;20442;-56
2023/02/14 05:43:51;;;;;;;11.10;10.60;;;20.10;55.80;;;;;;5111578;28;20536;-58
2023/02/14 05:46:18;;;;;;;10.67;10.27;;;20.10;55.80;;;;;;5114082;28;20548;-55
2023/02/14 05:48:45;;;;;;;10.10;9.80;;;20.10;55.80;;;;;;5115323;28;20445;-59
2023/02/14 05:51:13;;;;;;;9.90;9.60;;;20.10;55.70;;;;;;5114970;28;20442;-59
2023/02/14 05:53:40;;;;;;;10.80;10.30;;;20.20;55.70;;;;;;5115132;28;20516;-57
2023/02/14 05:56:08;;;;;;;12.23;11.33;;;20.20;55.80;;;;;;5115031;28;20831;-59
2023/02/14 05:58:34;;;;;;;13.17;12.47;;;20.20;56.00;;;;;;5114465;28;20968;-58
2023/02/14 06:01:01;;;;;;;14.23;13.40;;;20.20;56.80;;;;;;5114616;28;20864;-58
2023/02/14 06:03:28;;;;;;;14.00;12.93;;;20.20;57.90;;;;;;5115016;28;20545;-57
2023/02/14 06:05:55;;;;;;;13.40;12.60;;;20.20;58.60;;;;;;5113808;28;20465;-56
2023/02/14 06:08:23;;;;;;;11.77;10.97;;;20.20;59.50;;;;;;5113529;27;20452;-59
2023/02/14 06:10:50;;;;;;;12.93;12.23;;;20.20;59.10;;;;;;5114512;28;20524;-59
2023/02/14 06:13:17;;;;;;;12.53;11.70;;;20.30;59.30;;;;;;5114840;28;20557;-60
2023/02/14 06:15:44;;;;;;;13.60;12.50;;;20.30;59.30;;;;;;5114703;28;20544;-57
2023/02/14 06:18:10;;;;;;;13.00;12.23;;;20.30;59.10;;;;;;5114689;28;20540;-59
2023/02/14 06:20:37;;;;;;;12.20;11.33;;;20.40;58.90;;;;;;5114319;28;20544;-59
2023/02/14 06:23:04;;;;;;;13.10;12.00;;;20.40;58.60;;;;;;5114661;28;20536;-58
2023/02/14 06:25:32;;;;;;;12.77;12.17;;;20.40;58.20;;;;;;5114535;28;20524;-59
2023/02/14 06:27:59;;;;;;;12.40;11.73;;;20.40;58.00;;;;;;5114567;28;20456;-59
2023/02/14 06:30:27;;;;;;;13.57;12.57;;;20.40;57.70;;;;;;5114246;28;20805;-57
2023/02/14 06:32:54;;;;;;;11.60;11.10;;;20.40;57.50;;;;;;5114395;28;20447;-59
2023/02/14 06:35:21;;;;;;;12.87;11.93;;;20.50;57.30;;;;;;5114273;28;20528;-58
2023/02/14 06:37:48;;;;;;;13.23;12.03;;;20.50;57.10;;;;;;5114162;28;20485;-58
2023/02/14 06:40:14;;;;;;;12.57;11.97;;;20.50;56.90;;;;;;5114129;28;20442;-59
2023/02/14 06:42:43;;;;;;;13.83;13.03;;;20.50;56.80;;;;;;5114247;28;20528;-58
2023/02/14 06:45:10;;;;;;;13.30;12.17;;;20.50;56.60;;;;;;5114215;28;20528;-58
2023/02/14 06:47:37;;;;;;;12.70;12.20;;;20.50;56.40;;;;;;5114076;28;20461;-59
2023/02/14 06:50:05;;;;;;;12.47;11.77;;;20.50;56.20;;;;;;5113933;28;20437;-58
2023/02/14 06:52:32;;;;;;;12.43;11.73;;;20.60;56.10;;;;;;5113920;28;20448;-58
2023/02/14 06:54:59;;;;;;;12.13;11.53;;;20.60;56.00;;;;;;5113849;28;20800;-58
2023/02/14 06:57:26;;;;;;;13.40;12.90;;;20.50;55.80;;;;;;5113079;28;20491;-60
2023/02/14 06:59:54;;;;;;;11.87;11.20;;;20.50;55.70;;;;;;5113637;28;20442;-60
2023/02/14 07:02:21;;;;;;;12.53;11.73;;;20.50;55.60;;;;;;5113734;28;20948;-57
2023/02/14 07:04:48;;;;;;;11.27;10.67;;;20.50;55.50;;;;;;5113926;28;20528;-60
2023/02/14 07:07:15;;;;;;;13.13;12.13;;;20.60;55.50;;;;;;5113599;28;20660;-59
2023/02/14 07:09:41;;;;;;;13.50;12.47;;;20.50;55.30;;;;;;5113462;28;20517;-57
2023/02/14 07:12:08;;;;;;;11.87;11.10;;;20.50;55.20;;;;;;5113544;28;20448;-59
2023/02/14 07:14:35;;;;;;;11.77;11.27;;;20.50;55.10;;;;;;5113599;28;20818;-59
2023/02/14 07:17:03;;;;;;;12.70;12.00;;;20.50;55.00;;;;;;5113410;28;20489;-58
2023/02/14 07:19:30;;;;;;;12.37;11.33;;;20.60;55.10;;;;;;5113255;28;20452;-59
2023/02/14 07:21:57;;;;;;;12.20;11.60;;;20.50;55.00;;;;;;5113610;28;20445;-59
2023/02/14 07:24:24;;;;;;;11.13;10.67;;;20.50;54.90;;;;;;5113321;28;20446;-59
2023/02/14 07:26:51;;;;;;;10.83;10.23;;;20.60;55.00;;;;;;5113142;28;20469;-58
2023/02/14 07:29:18;;;;;;;11.50;10.77;;;20.50;54.90;;;;;;5113048;28;20535;-58
2023/02/14 07:31:44;;;;;;;11.47;11.00;;;20.60;55.50;;;;;;5113263;28;20442;-57
2023/02/14 07:34:13;;;;;;;11.20;10.70;;;20.50;54.80;;;;;;5113075;28;20619;-60
2023/02/14 07:36:39;;;;;;;10.70;10.20;;;20.60;54.90;;;;;;5112963;28;20481;-58
2023/02/14 07:39:06;;;;;;;11.97;11.47;;;20.60;54.80;;;;;;5112889;28;20537;-58
2023/02/14 07:41:33;;;;;;;11.30;10.80;;;20.60;54.80;;;;;;5112982;28;20437;-59
2023/02/14 07:44:00;;;;;;;11.10;10.50;;;20.60;54.70;;;;;;5112938;28;20441;-58
2023/02/14 07:46:27;;;;;;;11.13;10.53;;;20.60;54.60;;;;;;5113035;28;20548;-59
2023/02/14 07:48:53;;;;;;;11.23;10.83;;;20.60;54.60;;;;;;5112546;28;20448;-59
2023/02/14 07:51:21;;;;;;;10.97;10.57;;;20.70;54.50;;;;;;5112765;28;20451;-58
2023/02/14 07:53:48;;;;;;;11.13;10.63;;;20.70;54.50;;;;;;5113038;28;21016;-57
2023/02/14 07:56:15;;;;;;;10.20;9.80;;;20.70;54.40;;;;;;5112621;28;20467;-60
2023/02/14 07:58:42;;;;;;;10.97;10.37;;;20.70;54.40;;;;;;5112739;28;20446;-60
2023/02/14 08:01:09;;;;;;;10.00;9.60;;;20.70;54.30;;;;;;5112554;28;20926;-60
2023/02/14 08:03:36;;;;;;;11.20;10.70;;;20.70;54.20;;;;;;5112724;28;20532;-60
2023/02/14 08:06:03;;;;;;;11.40;10.93;;;20.70;54.10;;;;;;5112634;28;20916;-56
2023/02/14 08:08:31;;;;;;;11.60;11.10;;;20.70;54.10;;;;;;5112499;28;20558;-60
2023/02/14 08:10:59;;;;;;;11.80;11.30;;;20.70;54.00;;;;;;5112252;28;20448;-58
2023/02/14 08:13:25;;;;;;;11.43;11.03;;;20.80;54.00;;;;;;5112533;28;20595;-60
2023/02/14 08:16:08;;;;;;;11.53;11.10;;;20.80;53.90;;;;;;5112290;28;20918;-60
2023/02/14 08:18:37;;;;;;;10.47;10.07;;;20.80;53.90;;;;;;5112358;28;20480;-60
2023/02/14 08:21:05;;;;;;;12.20;11.73;;;20.70;53.70;;;;;;5112183;28;20445;-60
2023/02/14 08:23:34;;;;;;;10.80;10.50;;;20.70;53.70;;;;;;5112366;28;20456;-61
2023/02/14 08:26:01;;;;;;;11.37;10.87;;;20.70;53.70;;;;;;5112198;28;20469;-59
2023/02/14 08:28:29;;;;;;;11.37;10.97;;;20.80;53.70;;;;;;5112233;28;20444;-59
2023/02/14 08:30:56;;;;;;;11.17;10.77;;;20.70;53.60;;;;;;5111994;28;20445;-59
2023/02/14 08:33:22;;;;;;;10.80;10.30;;;20.70;53.50;;;;;;5112349;28;20533;-58
2023/02/14 08:35:51;;;;;;;11.50;11.10;;;20.70;53.50;;;;;;5112097;28;20449;-58
2023/02/14 08:38:18;;;;;;;11.10;10.70;;;20.80;53.50;;;;;;5112107;28;20840;-58
2023/02/14 08:40:47;;;;;;;11.00;10.60;;;20.80;53.50;;;;;;5111932;28;20437;-60
2023/02/14 08:43:14;;;;;;;10.80;10.30;;;20.70;53.40;;;;;;5112151;28;21014;-58
2023/02/14 08:45:41;;;;;;;12.10;11.70;;;20.70;53.30;;;;;;5112021;28;20546;-60
2023/02/14 08:48:10;;;;;;;11.60;11.20;;;20.80;53.40;;;;;;5111968;28;20443;-59
2023/02/14 08:50:40;;;;;;;11.80;11.20;;;20.70;53.30;;;;;;5111734;28;20449;-57
2023/02/14 08:53:08;;;;;;;10.73;10.30;;;20.70;53.30;;;;;;5111957;28;20455;-57
2023/02/14 08:55:35;;;;;;;10.77;10.27;;;20.70;53.20;;;;;;5111951;28;20448;-59
2023/02/14 08:58:04;;;;;;;11.30;11.00;;;20.70;53.20;;;;;;5111823;28;20485;-60
2023/02/14 09:00:31;;;;;;;10.87;10.57;;;20.70;53.20;;;;;;5112077;28;20441;-60
2023/02/14 09:02:57;;;;;;;11.40;10.80;;;20.70;53.20;;;;;;5111827;28;20830;-60
2023/02/14 09:05:25;;;;;;;11.10;10.70;;;20.70;53.20;;;;;;5111819;28;20536;-59
2023/02/14 09:07:54;;;;;;;10.77;10.47;;;20.70;53.20;;;;;;5111771;28;20497;-58
2023/02/14 09:10:21;;;;;;;11.07;10.70;;;20.70;53.20;;;;;;5111687;28;20452;-59
2023/02/14 09:12:48;;;;;;;11.07;10.67;;;20.70;53.20;;;;;;5111786;28;20464;-58
2023/02/14 09:15:16;;;;;;;11.33;10.93;;;20.70;53.20;;;;;;5111747;28;20442;-58
2023/02/14 09:17:43;;;;;;;11.37;10.90;;;20.70;53.20;;;;;;5111587;28;20485;-58
2023/02/14 09:20:12;;;;;;;12.10;11.60;;;20.70;53.20;;;;;;5112478;28;20442;-59
2023/02/14 09:22:39;;;;;;;11.87;11.47;;;20.80;53.20;;;;;;5115864;28;20443;-59
2023/02/14 09:25:06;;;;;;;10.10;9.80;;;20.80;53.20;;;;;;5115643;28;20875;-60
2023/02/14 09:27:32;;;;;;;10.70;10.40;;;20.80;53.20;;;;;;5115604;28;20472;-56
2023/02/14 09:29:59;;;;;;;10.60;10.30;;;20.80;53.10;;;;;;5115331;28;20449;-59
2023/02/14 09:32:28;;;;;;;10.83;10.50;;;20.80;53.10;;;;;;5115459;28;20467;-60
2023/02/14 09:34:55;;;;;;;11.80;11.40;;;20.80;53.10;;;;;;5115483;27;20444;-60
2023/02/14 09:40:07;;;;;;;11.70;11.30;;;20.80;52.90;;;;;;5115338;28;20421;-58
2023/02/14 09:42:48;;;;;;;10.30;10.00;;;20.80;52.90;;;;;;5115321;28;20448;-58
2023/02/14 09:45:18;;;;;;;11.00;10.70;;;20.80;52.90;;;;;;5115315;28;20441;-60
2023/02/14 09:47:51;;;;;;;11.00;10.70;;;20.80;52.80;;;;;;5115042;28;20453;-58
2023/02/14 09:50:23;;;;;;;10.73;10.33;;;20.80;52.80;;;;;;5115093;28;20498;-61
2023/02/14 09:52:55;;;;;;;11.73;11.33;;;20.80;52.80;;;;;;5115257;28;20441;-59
2023/02/14 09:55:23;;;;;;;11.23;10.83;;;20.80;52.70;;;;;;5115033;28;20445;-59
2023/02/14 09:58:03;;;;;;;11.67;11.27;;;20.90;52.70;;;;;;5115026;28;20481;-58
2023/02/14 10:00:36;;;;;;;11.33;10.93;;;20.80;52.70;;;;;;5114973;28;20452;-59
2023/02/14 10:03:25;;;;;;;10.60;10.30;;;20.80;52.70;;;;;;5114950;28;20479;-60
2023/02/14 10:06:01;;;;;;;11.07;10.73;;;20.80;52.60;;;;;;5111794;28;20528;-60
2023/02/14 10:08:42;;;;;;;11.30;10.90;;;20.80;52.70;;;;;;5114967;28;20930;-58
2023/02/14 10:11:13;;;;;;;11.57;11.10;;;20.80;52.60;;;;;;5114721;28;20493;-57
2023/02/14 10:13:46;;;;;;;11.23;10.93;;;20.80;52.70;;;;;;5114771;28;20820;-59
2023/02/14 10:16:22;;;;;;;11.67;11.23;;;20.80;52.70;;;;;;5114591;28;20471;-59
2023/02/14 10:18:55;;;;;;;11.47;11.07;;;20.80;52.70;;;;;;5114385;28;21009;-59
2023/02/14 10:21:26;;;;;;;12.13;11.63;;;20.80;52.70;;;;;;5114651;28;20426;-57
2023/02/14 10:24:01;;;;;;;11.10;10.80;;;20.80;52.70;;;;;;5114664;28;20443;-58
2023/02/14 10:26:33;;;;;;;10.60;10.30;;;20.80;52.70;;;;;;5114450;28;21000;-60
2023/02/14 10:29:00;;;;;;;10.13;9.83;;;20.80;52.70;;;;;;5114232;28;20434;-62
2023/02/14 10:31:35;;;;;;;10.80;10.50;;;20.80;52.70;;;;;;5113538;28;20699;-62
2023/02/14 10:34:14;;;;;;;11.33;10.97;;;20.80;52.70;;;;;;5114149;28;20441;-61
2023/02/14 10:36:56;;;;;;;11.40;11.00;;;20.80;52.70;;;;;;5114148;28;20457;-62
2023/02/14 10:39:54;;;;;;;10.90;10.60;;;20.80;52.70;;;;;;5113995;28;20484;-62
2023/02/14 10:42:29;;;;;;;11.37;10.90;;;20.70;52.60;;;;;;5113711;28;20883;-62
2023/02/14 10:45:05;;;;;;;10.50;10.20;;;20.70;53.10;;;;;;5114104;28;20448;-60
2023/02/14 10:47:40;;;;;;;10.60;10.23;;;20.70;52.50;;;;;;5114135;28;20456;-61
2023/02/14 10:50:17;;;;;;;11.60;11.20;;;20.70;52.60;;;;;;5113840;28;20456;-61
2023/02/14 10:52:52;;;;;;;10.47;10.17;;;20.70;52.60;;;;;;5113699;28;20433;-62
2023/02/14 10:55:22;;;;;;;10.43;10.13;;;20.80;52.70;;;;;;5114006;28;20448;-61
2023/02/14 10:57:54;;;;;;;11.07;10.73;;;20.80;52.70;;;;;;5113858;27;20481;-61
2023/02/14 11:00:26;;;;;;;10.83;10.30;;;20.80;52.60;;;;;;5113543;28;20446;-62
2023/02/14 11:02:58;;;;;;;11.40;11.00;;;20.80;52.60;;;;;;5113879;28;20448;-62
2023/02/14 11:05:32;;;;;;;11.30;10.90;;;20.80;52.60;;;;;;5113702;28;20445;-61
2023/02/14 11:08:00;;;;;;;10.53;10.23;;;20.80;52.60;;;;;;5113652;28;20457;-60
2023/02/14 11:10:31;;;;;;;11.07;10.67;;;20.80;52.50;;;;;;5113274;28;20496;-60
2023/02/14 11:12:58;;;;;;;10.90;10.50;;;20.90;52.60;;;;;;5113606;28;20516;-60
2023/02/14 11:15:30;;;;;;;9.80;9.50;;;20.80;52.50;;;;;;5113448;28;20444;-58
2023/02/14 11:18:16;;;;;;;10.00;9.70;;;20.90;52.50;;;;;;5113660;28;20485;-60
2023/02/14 11:20:58;;;;;;;10.10;9.80;;;20.90;52.50;;;;;;5113205;28;20445;-61
2023/02/14 11:23:25;;;;;;;9.90;9.70;;;20.90;52.40;;;;;;5113538;28;20446;-61
2023/02/14 11:28:20;;;;;;;9.53;9.33;;;20.90;52.40;;;;;;5132282;22;20527;-68
2023/02/14 11:30:49;;;;;;;10.30;10.00;;;20.90;52.40;;;;;;5107410;28;20438;-68
2023/02/14 11:33:29;;;;;;;9.33;8.97;;;20.90;52.30;;;;;;5104065;28;20927;-68
2023/02/14 11:35:57;;;;;;;10.73;10.33;;;20.90;52.30;;;;;;5094350;28;20446;-67
2023/02/14 11:38:29;;;;;;;9.87;9.57;;;20.90;52.30;;;;;;5095039;28;20478;-67
2023/02/14 11:40:58;;;;;;;10.40;9.70;;;20.90;52.30;;;;;;5094043;28;20546;-67
2023/02/14 11:43:33;;;;;;;9.67;9.47;;;20.90;52.30;;;;;;5093523;28;20516;-67
2023/02/14 11:46:24;;;;;;;10.03;9.73;;;20.90;52.30;;;;;;5094511;28;20998;-66
2023/02/14 11:48:56;;;;;;;10.53;10.23;;;20.90;52.20;;;;;;5093683;28;20447;-67
2023/02/14 11:51:29;;;;;;;10.30;9.97;;;21.00;52.30;;;;;;5093762;28;20802;-67
2023/02/14 11:54:03;;;;;;;10.60;10.30;;;20.90;52.20;;;;;;5092951;28;20806;-66
2023/02/14 11:56:46;;;;;;;10.43;10.13;;;21.00;52.30;;;;;;5093222;28;20496;-66
2023/02/14 11:59:25;;;;;;;9.70;9.40;;;20.90;52.10;;;;;;5092480;28;20477;-66
2023/02/14 12:01:53;;;;;;;9.60;9.30;;;21.00;52.20;;;;;;5092522;28;20881;-67
2023/02/14 12:04:26;;;;;;;9.80;9.50;;;21.00;52.20;;;;;;5092620;28;20529;-67
2023/02/14 12:06:55;;;;;;;10.47;10.17;;;21.00;52.20;;;;;;5092388;28;20918;-66
2023/02/14 12:09:29;;;;;;;9.13;8.93;;;21.00;52.20;;;;;;5092237;28;20430;-66
2023/02/14 12:11:57;;;;;;;9.67;9.40;;;21.00;52.20;;;;;;5092678;28;20478;-66
2023/02/14 12:14:30;;;;;;;10.53;10.23;;;21.00;52.20;;;;;;5092689;28;20442;-66
2023/02/14 12:17:02;;;;;;;10.27;9.87;;;21.00;52.10;;;;;;5092358;28;20968;-66
2023/02/14 12:19:38;;;;;;;9.50;9.30;;;21.00;52.10;;;;;;5091938;28;20501;-67
2023/02/14 12:22:10;;;;;;;9.87;9.57;;;21.00;52.10;;;;;;5092372;28;20468;-66
2023/02/14 12:24:51;;;;;;;10.90;10.43;;;21.00;52.10;;;;;;5092809;28;20450;-66
2023/02/14 12:27:21;;;;;;;10.40;9.80;;;21.00;52.10;;;;;;5092235;28;20480;-66
2023/02/14 12:29:54;;;;;;;10.20;9.90;;;21.00;52.10;;;;;;5092148;28;20915;-65
2023/02/14 12:32:23;;;;;;;9.83;9.53;;;21.00;52.10;;;;;;5092404;28;20521;-65
2023/02/14 12:34:51;;;;;;;9.47;9.17;;;21.00;52.10;;;;;;5092486;28;20443;-66
2023/02/14 12:37:30;;;;;;;9.80;9.60;;;21.00;52.10;;;;;;5092079;28;20462;-65
2023/02/14 12:40:10;;;;;;;10.33;10.03;;;21.00;52.10;;;;;;5091754;28;20689;-65
2023/02/14 12:43:10;;;;;;;10.23;9.93;;;21.00;52.10;;;;;;5091897;28;20438;-66
2023/02/14 12:45:55;;;;;;;10.10;9.80;;;21.10;52.20;;;;;;5092168;28;20438;-65
2023/02/14 12:48:32;;;;;;;10.40;10.10;;;21.10;52.20;;;;;;5092544;28;20522;-65
2023/02/14 12:51:06;;;;;;;9.40;9.20;;;21.10;52.20;;;;;;5091749;28;20456;-66
2023/02/14 12:53:47;;;;;;;9.87;9.57;;;21.10;52.20;;;;;;5092468;28;20440;-66
2023/02/14 12:56:23;;;;;;;10.80;10.43;;;21.10;52.20;;;;;;5095386;28;20478;-66
2023/02/14 12:59:02;;;;;;;10.30;10.00;;;21.20;52.30;;;;;;5096533;28;20481;-66
2023/02/14 13:01:41;;;;;;;10.70;10.30;;;21.20;52.20;;;;;;5096730;28;20446;-66
2023/02/14 13:04:31;;;;;;;10.70;10.40;;;21.20;52.20;;;;;;5096519;28;20448;-66
2023/02/14 13:07:07;;;;;;;10.83;10.53;;;21.20;52.20;;;;;;5096011;28;20468;-67
2023/02/14 13:09:44;;;;;;;10.40;10.10;;;21.20;52.10;;;;;;5096006;28;20449;-67